createdAt,value
2022-11-21T00:00:15.441Z,34
2022-11-21T00:01:22.899Z,37
2022-11-21T00:02:30.420Z,31
2022-11-21T00:03:37.397Z,25
2022-11-21T00:04:44.903Z,31
2022-11-21T00:05:53.437Z,34
2022-11-21T00:07:00.511Z,29
2022-11-21T00:08:07.815Z,32
2022-11-21T00:09:19.205Z,30
2022-11-21T00:10:26.470Z,28
2022-11-21T00:11:34.065Z,29
2022-11-21T00:12:45.116Z,30
2022-11-21T00:13:52.800Z,31
2022-11-21T00:15:00.541Z,25
2022-11-21T00:16:08.867Z,41
2022-11-21T00:17:16.208Z,26
2022-11-21T00:18:24.574Z,28
2022-11-21T00:19:31.764Z,35
2022-11-21T00:20:38.744Z,36
2022-11-21T00:21:46.980Z,32
2022-11-21T00:22:54.612Z,28
2022-11-21T00:24:01.728Z,30
2022-11-21T00:25:10.154Z,27
2022-11-21T00:26:17.576Z,36
2022-11-21T00:27:24.672Z,25
2022-11-21T00:28:32.251Z,29
2022-11-21T00:29:40.104Z,31
2022-11-21T00:30:47.988Z,33
2022-11-21T00:31:55.244Z,32
2022-11-21T00:33:03.516Z,25
2022-11-21T00:34:10.640Z,34
2022-11-21T00:35:17.981Z,27
2022-11-21T00:36:26.159Z,36
2022-11-21T00:37:33.691Z,34
2022-11-21T00:38:40.812Z,32
2022-11-21T00:39:47.908Z,33
2022-11-21T00:40:55.133Z,28
2022-11-21T00:42:02.406Z,31
2022-11-21T00:43:09.780Z,40
2022-11-21T00:44:17.177Z,33
2022-11-21T00:45:24.793Z,35
2022-11-21T00:46:31.869Z,27
2022-11-21T00:47:40.241Z,44
2022-11-21T00:48:48.028Z,33
2022-11-21T00:49:55.480Z,26
2022-11-21T00:51:02.475Z,33
2022-11-21T00:52:12.248Z,38
2022-11-21T00:53:20.913Z,32
2022-11-21T00:54:28.529Z,32
2022-11-21T00:55:35.757Z,25
2022-11-21T00:56:43.553Z,30
2022-11-21T00:57:50.849Z,33
2022-11-21T00:58:57.965Z,33
2022-11-21T01:00:06.067Z,37
2022-11-21T01:01:14.144Z,39
2022-11-21T01:02:21.573Z,31
2022-11-21T01:03:28.873Z,25
2022-11-21T01:04:37.503Z,32
2022-11-21T01:05:44.928Z,25
2022-11-21T01:06:52.259Z,33
2022-11-21T01:07:59.453Z,33
2022-11-21T01:09:07.181Z,43
2022-11-21T01:10:15.256Z,41
2022-11-21T01:11:23.044Z,25
2022-11-21T01:12:30.576Z,37
2022-11-21T01:13:38.670Z,33
2022-11-21T01:14:45.996Z,33
2022-11-21T01:15:53.295Z,37
2022-11-21T01:17:00.343Z,25
2022-11-21T01:18:13.828Z,25
2022-11-21T01:19:23.579Z,25
2022-11-21T01:20:31.143Z,35
2022-11-21T01:21:38.484Z,26
2022-11-21T01:22:46.039Z,32
2022-11-21T01:23:53.425Z,29
2022-11-21T01:25:03.847Z,31
2022-11-21T01:26:10.993Z,38
2022-11-21T01:27:20.139Z,38
2022-11-21T01:28:27.653Z,39
2022-11-21T01:29:35.079Z,42
2022-11-21T01:30:42.359Z,32
2022-11-21T01:31:50.006Z,33
2022-11-21T01:32:58.161Z,33
2022-11-21T01:34:06.382Z,38
2022-11-21T01:35:14.386Z,28
2022-11-21T01:36:21.256Z,26
2022-11-21T01:37:29.682Z,28
2022-11-21T01:38:37.633Z,32
2022-11-21T01:39:45.567Z,31
2022-11-21T01:40:52.994Z,42
2022-11-21T01:42:00.709Z,29
2022-11-21T01:43:08.310Z,28
2022-11-21T01:44:15.273Z,28
2022-11-21T01:45:25.022Z,26
2022-11-21T01:46:42.743Z,27
2022-11-21T01:47:50.754Z,32
2022-11-21T01:48:58.193Z,30
2022-11-21T01:50:08.167Z,25
2022-11-21T01:51:12.258Z,28
2022-11-21T01:52:22.362Z,33
2022-11-21T01:53:30.505Z,37
2022-11-21T01:54:38.162Z,29
2022-11-21T01:55:50.825Z,36
2022-11-21T01:56:58.390Z,41
2022-11-21T01:58:11.694Z,29
2022-11-21T01:59:19.091Z,32
2022-11-21T02:00:31.442Z,29
2022-11-21T02:01:38.414Z,29
2022-11-21T02:02:46.526Z,30
2022-11-21T02:03:53.621Z,29
2022-11-21T02:05:00.857Z,34
2022-11-21T02:06:08.849Z,27
2022-11-21T02:07:16.208Z,33
2022-11-21T02:08:23.677Z,35
2022-11-21T02:09:31.038Z,35
2022-11-21T02:10:38.070Z,25
2022-11-21T02:11:45.422Z,31
2022-11-21T02:12:55.751Z,32
2022-11-21T02:14:02.980Z,36
2022-11-21T02:15:10.322Z,35
2022-11-21T02:16:18.478Z,30
2022-11-21T02:17:25.417Z,31
2022-11-21T02:18:32.634Z,32
2022-11-21T02:19:39.717Z,33
2022-11-21T02:20:51.869Z,31
2022-11-21T02:21:59.108Z,31
2022-11-21T02:23:06.934Z,29
2022-11-21T02:24:17.950Z,38
2022-11-21T02:25:30.361Z,32
2022-11-21T02:26:40.289Z,37
2022-11-21T02:27:47.551Z,39
2022-11-21T02:28:55.254Z,26
2022-11-21T02:30:03.273Z,35
2022-11-21T02:31:12.934Z,42
2022-11-21T02:32:20.289Z,36
2022-11-21T02:33:30.213Z,47
2022-11-21T02:34:37.525Z,45
2022-11-21T02:35:44.881Z,45
2022-11-21T02:36:59.709Z,57
2022-11-21T02:38:06.873Z,43
2022-11-21T02:39:22.201Z,45
2022-11-21T02:40:29.616Z,52
2022-11-21T02:41:37.105Z,53
2022-11-21T02:42:52.611Z,64
2022-11-21T02:44:02.143Z,46
2022-11-21T02:45:10.418Z,43
2022-11-21T02:46:24.068Z,48
2022-11-21T02:47:31.513Z,45
2022-11-21T02:48:38.905Z,43
2022-11-21T02:49:47.112Z,43
2022-11-21T02:51:01.037Z,41
2022-11-21T02:52:08.149Z,40
2022-11-21T02:53:15.469Z,33
2022-11-21T02:54:22.769Z,34
2022-11-21T02:55:30.257Z,37
2022-11-21T02:56:43.349Z,39
2022-11-21T02:57:54.445Z,37
2022-11-21T02:59:01.556Z,39
2022-11-21T03:00:08.763Z,29
2022-11-21T03:01:17.273Z,30
2022-11-21T03:02:26.265Z,30
2022-11-21T03:03:33.331Z,37
2022-11-21T03:04:40.374Z,29
2022-11-21T03:05:47.577Z,32
2022-11-21T03:06:55.737Z,43
2022-11-21T03:08:03.063Z,42
2022-11-21T03:09:10.453Z,46
2022-11-21T03:10:18.749Z,39
2022-11-21T03:11:26.053Z,39
2022-11-21T03:12:34.377Z,47
2022-11-21T03:13:41.973Z,47
2022-11-21T03:14:50.351Z,54
2022-11-21T03:15:57.685Z,50
2022-11-21T03:17:05.061Z,45
2022-11-21T03:18:13.480Z,45
2022-11-21T03:19:21.029Z,42
2022-11-21T03:20:28.742Z,41
2022-11-21T03:21:36.089Z,29
2022-11-21T03:22:44.055Z,27
2022-11-21T03:23:51.664Z,28
2022-11-21T03:24:59.981Z,25
2022-11-21T03:26:07.508Z,25
2022-11-21T03:27:16.225Z,29
2022-11-21T03:28:23.635Z,29
2022-11-21T03:29:30.717Z,37
2022-11-21T03:30:37.769Z,34
2022-11-21T03:31:45.188Z,32
2022-11-21T03:32:52.729Z,40
2022-11-21T03:33:59.830Z,41
2022-11-21T03:35:07.734Z,47
2022-11-21T03:36:15.330Z,46
2022-11-21T03:37:23.068Z,50
2022-11-21T03:38:30.329Z,49
2022-11-21T03:39:38.589Z,45
2022-11-21T03:40:46.548Z,45
2022-11-21T03:41:54.521Z,45
2022-11-21T03:43:02.010Z,58
2022-11-21T03:44:10.869Z,49
2022-11-21T03:45:18.441Z,51
2022-11-21T03:46:25.846Z,56
2022-11-21T03:47:32.937Z,46
2022-11-21T03:48:42.005Z,47
2022-11-21T03:49:49.405Z,46
2022-11-21T03:50:56.473Z,48
2022-11-21T03:52:03.745Z,47
2022-11-21T03:53:10.693Z,44
2022-11-21T03:54:18.975Z,40
2022-11-21T03:55:25.984Z,34
2022-11-21T03:56:33.169Z,44
2022-11-21T03:57:42.061Z,37
2022-11-21T03:58:50.814Z,33
2022-11-21T03:59:58.564Z,40
2022-11-21T04:01:05.910Z,31
2022-11-21T04:02:13.109Z,38
2022-11-21T04:03:21.354Z,34
2022-11-21T04:04:37.989Z,31
2022-11-21T04:05:59.416Z,33
2022-11-21T04:07:06.499Z,29
2022-11-21T04:08:13.557Z,28
2022-11-21T04:09:21.268Z,27
2022-11-21T04:10:29.769Z,28
2022-11-21T04:11:37.889Z,31
2022-11-21T04:12:45.116Z,27
2022-11-21T04:13:52.716Z,25
2022-11-21T04:15:00.257Z,26
2022-11-21T04:16:07.784Z,31
2022-11-21T04:17:15.213Z,30
2022-11-21T04:18:22.957Z,25
2022-11-21T04:19:31.642Z,36
2022-11-21T04:20:38.980Z,30
2022-11-21T04:21:46.919Z,29
2022-11-21T04:22:54.204Z,30
2022-11-21T04:24:05.036Z,27
2022-11-21T04:25:12.734Z,27
2022-11-21T04:26:20.221Z,26
2022-11-21T04:27:27.661Z,33
2022-11-21T04:28:34.957Z,32
2022-11-21T04:29:42.061Z,26
2022-11-21T04:30:49.400Z,35
2022-11-21T04:31:56.901Z,30
2022-11-21T04:33:04.310Z,32
2022-11-21T04:34:11.645Z,26
2022-11-21T04:35:18.817Z,26
2022-11-21T04:36:25.897Z,25
2022-11-21T04:37:33.161Z,26
2022-11-21T04:38:41.302Z,26
2022-11-21T04:39:48.528Z,25
2022-11-21T04:40:57.144Z,33
2022-11-21T04:42:05.733Z,28
2022-11-21T04:43:15.576Z,25
2022-11-21T04:44:22.850Z,31
2022-11-21T04:45:30.066Z,30
2022-11-21T04:46:37.473Z,27
2022-11-21T04:47:45.749Z,27
2022-11-21T04:48:52.930Z,32
2022-11-21T04:50:00.135Z,30
2022-11-21T04:51:07.413Z,37
2022-11-21T04:52:15.368Z,26
2022-11-21T04:53:22.953Z,34
2022-11-21T04:54:31.703Z,33
2022-11-21T04:55:39.358Z,44
2022-11-21T04:56:46.602Z,41
2022-11-21T04:57:53.834Z,41
2022-11-21T04:59:02.233Z,40
2022-11-21T05:00:09.661Z,40
2022-11-21T05:01:18.485Z,53
2022-11-21T05:02:26.709Z,41
2022-11-21T05:03:34.893Z,42
2022-11-21T05:04:44.490Z,46
2022-11-21T05:05:54.013Z,46
2022-11-21T05:07:06.606Z,52
2022-11-21T05:08:13.779Z,46
2022-11-21T05:09:26.733Z,49
2022-11-21T05:10:36.174Z,56
2022-11-21T05:11:49.212Z,57
2022-11-21T05:13:01.785Z,51
2022-11-21T05:14:14.546Z,54
2022-11-21T05:15:24.778Z,55
2022-11-21T05:16:30.438Z,58
2022-11-21T05:17:37.775Z,57
2022-11-21T05:18:46.655Z,58
2022-11-21T05:20:02.584Z,58
2022-11-21T05:21:10.473Z,54
2022-11-21T05:22:17.325Z,58
2022-11-21T05:23:24.885Z,54
2022-11-21T05:24:32.195Z,72
2022-11-21T05:25:39.998Z,67
2022-11-21T05:26:47.514Z,77
2022-11-21T05:27:54.637Z,78
2022-11-21T05:29:02.955Z,75
2022-11-21T05:30:10.116Z,71
2022-11-21T05:31:18.185Z,73
2022-11-21T05:32:25.221Z,77
2022-11-21T05:33:32.177Z,82
2022-11-21T05:34:39.523Z,80
2022-11-21T05:35:48.357Z,82
2022-11-21T05:36:56.314Z,76
2022-11-21T05:38:03.349Z,76
2022-11-21T05:39:12.118Z,74
2022-11-21T05:40:19.473Z,74
2022-11-21T05:41:29.705Z,75
2022-11-21T05:42:37.494Z,75
2022-11-21T05:43:49.717Z,67
2022-11-21T05:44:58.229Z,70
2022-11-21T05:46:06.406Z,75
2022-11-21T05:47:14.189Z,75
2022-11-21T05:48:21.469Z,70
2022-11-21T05:49:28.993Z,67
2022-11-21T05:50:36.305Z,68
2022-11-21T05:51:43.393Z,70
2022-11-21T05:52:50.489Z,69
2022-11-21T05:53:58.326Z,72
2022-11-21T05:55:05.957Z,66
2022-11-21T05:56:13.535Z,69
2022-11-21T05:57:20.988Z,63
2022-11-21T05:58:28.787Z,73
2022-11-21T05:59:37.445Z,74
2022-11-21T06:00:44.435Z,72
2022-11-21T06:01:52.140Z,66
2022-11-21T06:03:05.041Z,66
2022-11-21T06:04:18.163Z,58
2022-11-21T06:05:26.195Z,76
2022-11-21T06:06:42.307Z,69
2022-11-21T06:07:54.244Z,64
2022-11-21T06:09:01.227Z,72
2022-11-21T06:10:08.311Z,72
2022-11-21T06:11:16.815Z,77
2022-11-21T06:12:25.741Z,65
2022-11-21T06:13:31.256Z,63
2022-11-21T06:14:38.946Z,71
2022-11-21T06:15:46.108Z,63
2022-11-21T06:16:58.359Z,65
2022-11-21T06:18:05.259Z,66
2022-11-21T06:19:12.462Z,66
2022-11-21T06:20:20.082Z,62
2022-11-21T06:21:28.314Z,61
2022-11-21T06:22:36.312Z,65
2022-11-21T06:23:43.576Z,63
2022-11-21T06:24:52.727Z,53
2022-11-21T06:25:59.924Z,61
2022-11-21T06:27:07.759Z,51
2022-11-21T06:28:16.240Z,55
2022-11-21T06:29:23.433Z,49
2022-11-21T06:30:31.850Z,53
2022-11-21T06:31:39.415Z,50
2022-11-21T06:32:47.149Z,54
2022-11-21T06:33:54.499Z,50
2022-11-21T06:35:01.830Z,48
2022-11-21T06:36:09.359Z,47
2022-11-21T06:37:16.954Z,53
2022-11-21T06:38:24.066Z,39
2022-11-21T06:39:31.143Z,44
2022-11-21T06:40:38.635Z,40
2022-11-21T06:41:46.862Z,38
2022-11-21T06:42:55.824Z,36
2022-11-21T06:44:03.173Z,45
2022-11-21T06:45:10.290Z,42
2022-11-21T06:46:17.555Z,48
2022-11-21T06:47:25.731Z,47
2022-11-21T06:48:33.074Z,53
2022-11-21T06:49:40.655Z,46
2022-11-21T06:50:48.446Z,43
2022-11-21T06:51:57.034Z,47
2022-11-21T06:53:04.319Z,44
2022-11-21T06:54:15.181Z,51
2022-11-21T06:55:18.802Z,51
2022-11-21T06:56:26.554Z,46
2022-11-21T06:57:34.067Z,52
2022-11-21T06:58:41.029Z,54
2022-11-21T06:59:48.199Z,51
2022-11-21T07:00:55.298Z,55
2022-11-21T07:02:03.492Z,57
2022-11-21T07:03:11.863Z,53
2022-11-21T07:04:20.427Z,49
2022-11-21T07:05:28.904Z,52
2022-11-21T07:06:36.008Z,59
2022-11-21T07:07:43.796Z,55
2022-11-21T07:09:00.118Z,58
2022-11-21T07:09:58.031Z,61
2022-11-21T07:12:13.098Z,57
2022-11-21T07:13:25.647Z,58
2022-11-21T07:14:33.364Z,55
2022-11-21T07:15:41.518Z,57
2022-11-21T07:16:50.362Z,61
2022-11-21T07:17:57.995Z,62
2022-11-21T07:19:05.126Z,63
2022-11-21T07:20:12.484Z,70
2022-11-21T07:21:19.819Z,76
2022-11-21T07:22:27.151Z,64
2022-11-21T07:23:35.496Z,66
2022-11-21T07:24:44.531Z,63
2022-11-21T07:25:51.471Z,75
2022-11-21T07:26:58.511Z,69
2022-11-21T07:28:05.802Z,76
2022-11-21T07:29:12.963Z,73
2022-11-21T07:30:20.968Z,78
2022-11-21T07:31:28.063Z,80
2022-11-21T07:32:40.307Z,79
2022-11-21T07:33:48.007Z,80
2022-11-21T07:35:06.604Z,84
2022-11-21T07:36:17.339Z,89
2022-11-21T07:37:30.582Z,85
2022-11-21T07:38:38.434Z,90
2022-11-21T07:39:47.741Z,101
2022-11-21T07:40:56.549Z,93
2022-11-21T07:42:03.942Z,104
2022-11-21T07:43:11.352Z,95
2022-11-21T07:44:21.500Z,101
2022-11-21T07:45:29.110Z,108
2022-11-21T07:46:36.137Z,110
2022-11-21T07:47:43.599Z,107
2022-11-21T07:48:50.710Z,107
2022-11-21T07:49:57.911Z,100
2022-11-21T07:51:06.431Z,109
2022-11-21T07:52:13.807Z,109
2022-11-21T07:53:21.876Z,113
2022-11-21T07:54:29.571Z,116
2022-11-21T07:55:40.513Z,107
2022-11-21T07:56:45.271Z,117
2022-11-21T07:57:52.895Z,122
2022-11-21T07:59:08.823Z,116
2022-11-21T08:00:16.779Z,121
2022-11-21T08:01:24.210Z,126
2022-11-21T08:02:31.114Z,122
2022-11-21T08:03:38.526Z,122
2022-11-21T08:04:46.336Z,114
2022-11-21T08:05:53.696Z,123
2022-11-21T08:07:00.819Z,111
2022-11-21T08:08:07.691Z,112
2022-11-21T08:09:16.198Z,127
2022-11-21T08:10:24.651Z,115
2022-11-21T08:11:31.651Z,115
2022-11-21T08:12:38.817Z,121
2022-11-21T08:13:46.313Z,121
2022-11-21T08:14:53.663Z,118
2022-11-21T08:16:02.075Z,112
2022-11-21T08:17:09.510Z,112
2022-11-21T08:18:16.530Z,119
2022-11-21T08:19:23.901Z,115
2022-11-21T08:20:31.300Z,108
2022-11-21T08:21:38.395Z,116
2022-11-21T08:22:45.440Z,111
2022-11-21T08:23:52.790Z,118
2022-11-21T08:24:59.748Z,105
2022-11-21T08:26:06.941Z,107
2022-11-21T08:27:14.103Z,107
2022-11-21T08:28:21.178Z,110
2022-11-21T08:29:28.593Z,108
2022-11-21T08:30:35.502Z,110
2022-11-21T08:31:43.572Z,110
2022-11-21T08:32:51.089Z,112
2022-11-21T08:33:57.887Z,109
2022-11-21T08:35:06.037Z,106
2022-11-21T08:36:13.411Z,122
2022-11-21T08:37:20.767Z,108
2022-11-21T08:38:27.922Z,117
2022-11-21T08:39:35.563Z,112
2022-11-21T08:40:43.502Z,121
2022-11-21T08:41:50.973Z,109
2022-11-21T08:43:03.199Z,116
2022-11-21T08:44:13.975Z,111
2022-11-21T08:45:17.882Z,101
2022-11-21T08:46:26.223Z,107
2022-11-21T08:47:33.481Z,110
2022-11-21T08:48:40.757Z,120
2022-11-21T08:49:47.934Z,118
2022-11-21T08:50:55.128Z,119
2022-11-21T08:52:02.172Z,121
2022-11-21T08:53:09.269Z,118
2022-11-21T08:54:16.495Z,109
2022-11-21T08:55:23.712Z,121
2022-11-21T08:56:30.670Z,117
2022-11-21T08:57:37.827Z,122
2022-11-21T08:58:45.507Z,107
2022-11-21T08:59:52.739Z,109
2022-11-21T09:00:59.775Z,116
2022-11-21T09:02:07.481Z,110
2022-11-21T09:03:17.859Z,112
2022-11-21T09:04:21.780Z,110
2022-11-21T09:05:28.903Z,117
2022-11-21T09:06:36.071Z,117
2022-11-21T09:07:43.222Z,116
2022-11-21T09:08:50.267Z,111
2022-11-21T09:09:57.367Z,116
2022-11-21T09:11:04.771Z,111
2022-11-21T09:12:11.771Z,110
2022-11-21T09:13:19.107Z,114
2022-11-21T09:14:26.409Z,114
2022-11-21T09:15:38.170Z,110
2022-11-21T09:16:51.646Z,116
2022-11-21T09:18:04.154Z,112
2022-11-21T09:19:11.282Z,117
2022-11-21T09:20:19.411Z,113
2022-11-21T09:21:27.487Z,109
2022-11-21T09:22:35.024Z,115
2022-11-21T09:23:42.340Z,124
2022-11-21T09:24:49.542Z,111
2022-11-21T09:25:56.612Z,120
2022-11-21T09:27:04.098Z,117
2022-11-21T09:28:11.290Z,105
2022-11-21T09:29:18.411Z,108
2022-11-21T09:30:26.050Z,103
2022-11-21T09:31:34.250Z,102
2022-11-21T09:32:43.282Z,103
2022-11-21T09:33:54.724Z,87
2022-11-21T09:34:57.850Z,94
2022-11-21T09:36:04.974Z,92
2022-11-21T09:37:12.894Z,94
2022-11-21T09:38:23.963Z,90
2022-11-21T09:39:28.058Z,91
2022-11-21T09:40:35.210Z,89
2022-11-21T09:41:42.503Z,83
2022-11-21T09:43:04.910Z,87
2022-11-21T09:44:19.702Z,90
2022-11-21T09:45:26.834Z,86
2022-11-21T09:46:37.086Z,81
2022-11-21T09:47:44.204Z,71
2022-11-21T09:48:51.355Z,75
2022-11-21T09:49:58.399Z,83
2022-11-21T09:51:09.031Z,79
2022-11-21T09:52:16.288Z,81
2022-11-21T09:53:23.424Z,78
2022-11-21T09:54:38.582Z,79
2022-11-21T09:55:47.245Z,77
2022-11-21T09:56:52.948Z,83
2022-11-21T09:58:00.100Z,73
2022-11-21T09:59:17.591Z,75
2022-11-21T10:00:32.749Z,77
2022-11-21T10:01:39.738Z,73
2022-11-21T10:04:25.928Z,70
2022-11-21T10:05:32.619Z,66
2022-11-21T10:06:44.914Z,47
2022-11-21T10:07:57.263Z,62
2022-11-21T10:09:04.203Z,73
2022-11-21T10:10:17.450Z,74
2022-11-21T10:11:34.851Z,57
2022-11-21T10:12:47.208Z,70
2022-11-21T10:14:05.786Z,63
2022-11-21T10:15:20.574Z,69
2022-11-21T10:16:30.587Z,64
2022-11-21T10:17:40.523Z,61
2022-11-21T10:18:53.778Z,67
2022-11-21T10:20:08.992Z,59
2022-11-21T10:21:21.938Z,62
2022-11-21T10:22:29.791Z,53
2022-11-21T10:23:44.900Z,63
2022-11-21T10:25:02.523Z,57
2022-11-21T10:26:17.321Z,60
2022-11-21T10:27:33.077Z,44
2022-11-21T10:28:42.635Z,62
2022-11-21T10:29:49.822Z,53
2022-11-21T10:30:59.662Z,61
2022-11-21T10:32:07.127Z,48
2022-11-21T10:33:19.250Z,61
2022-11-21T10:34:31.708Z,45
2022-11-21T10:35:39.843Z,45
2022-11-21T10:36:52.190Z,54
2022-11-21T10:37:59.714Z,53
2022-11-21T10:39:07.471Z,31
2022-11-21T10:40:17.308Z,47
2022-11-21T10:41:27.730Z,49
2022-11-21T10:42:40.356Z,51
2022-11-21T10:43:56.337Z,54
2022-11-21T10:45:13.755Z,46
2022-11-21T10:46:20.887Z,29
2022-11-21T10:47:28.170Z,25
2022-11-21T10:48:36.435Z,48
2022-11-21T10:49:43.754Z,25
2022-11-21T10:50:51.382Z,25
2022-11-21T10:52:04.706Z,43
2022-11-21T10:53:14.849Z,46
2022-11-21T10:54:27.413Z,25
2022-11-21T10:55:37.246Z,32
2022-11-21T10:56:44.675Z,49
2022-11-21T10:57:51.556Z,30
2022-11-21T10:58:58.675Z,29
2022-11-21T11:00:05.981Z,48
2022-11-21T11:01:16.690Z,41
2022-11-21T11:02:28.693Z,39
2022-11-21T11:03:35.854Z,50
2022-11-21T11:04:47.690Z,34
2022-11-21T11:05:50.462Z,54
2022-11-21T11:06:57.834Z,31
2022-11-21T11:08:05.244Z,34
2022-11-21T11:09:13.474Z,42
2022-11-21T11:10:29.786Z,49
2022-11-21T11:11:39.927Z,33
2022-11-21T11:12:47.307Z,25
2022-11-21T11:13:59.327Z,35
2022-11-21T11:15:06.505Z,30
2022-11-21T11:16:13.641Z,29
2022-11-21T11:17:20.734Z,39
2022-11-21T11:18:32.973Z,34
2022-11-21T11:19:43.438Z,32
2022-11-21T11:20:55.336Z,30
2022-11-21T11:22:11.066Z,34
2022-11-21T11:23:28.430Z,30
2022-11-21T11:24:35.681Z,26
2022-11-21T11:25:42.693Z,37
2022-11-21T11:26:52.843Z,32
2022-11-21T11:28:01.454Z,25
2022-11-21T11:29:09.609Z,41
2022-11-21T11:30:27.055Z,35
2022-11-21T11:31:34.141Z,30
2022-11-21T11:32:52.394Z,25
2022-11-21T11:33:59.814Z,38
2022-11-21T11:35:06.696Z,34
2022-11-21T11:36:17.610Z,31
2022-11-21T11:37:37.238Z,31
2022-11-21T11:38:44.491Z,32
2022-11-21T11:39:59.452Z,26
2022-11-21T11:41:12.115Z,37
2022-11-21T11:42:24.057Z,35
2022-11-21T11:43:41.302Z,25
2022-11-21T11:44:56.258Z,28
2022-11-21T11:46:16.488Z,27
2022-11-21T11:47:29.472Z,38
2022-11-21T11:48:50.293Z,33
2022-11-21T11:49:45.413Z,27
2022-11-21T11:50:57.943Z,29
2022-11-21T11:52:05.636Z,31
2022-11-21T11:53:13.872Z,31
2022-11-21T11:54:23.672Z,40
2022-11-21T11:55:31.225Z,30
2022-11-21T11:56:47.472Z,27
2022-11-21T11:57:55.034Z,33
2022-11-21T11:59:02.557Z,36
2022-11-21T12:00:14.728Z,25
2022-11-21T12:01:31.689Z,39
2022-11-21T12:02:47.425Z,33
2022-11-21T12:04:05.928Z,32
2022-11-21T12:05:19.253Z,27
2022-11-21T12:06:52.789Z,37
2022-11-21T12:08:52.260Z,41
2022-11-21T12:09:59.887Z,39
2022-11-21T12:11:14.943Z,44
2022-11-21T12:12:38.388Z,41
2022-11-21T12:13:47.919Z,39
2022-11-21T12:14:54.019Z,37
2022-11-21T12:16:13.524Z,37
2022-11-21T12:17:18.317Z,59
2022-11-21T12:18:25.696Z,35
2022-11-21T12:19:35.595Z,29
2022-11-21T12:20:42.781Z,46
2022-11-21T12:21:50.787Z,32
2022-11-21T12:22:58.004Z,36
2022-11-21T12:24:05.200Z,26
2022-11-21T12:25:12.381Z,27
2022-11-21T12:26:19.639Z,28
2022-11-21T12:27:34.924Z,29
2022-11-21T12:28:42.354Z,53
2022-11-21T12:29:59.064Z,25
2022-11-21T12:31:17.424Z,28
2022-11-21T12:32:35.024Z,31
2022-11-21T12:33:48.337Z,38
2022-11-21T12:35:00.784Z,33
2022-11-21T12:36:19.183Z,39
2022-11-21T12:37:28.208Z,29
2022-11-21T12:38:44.658Z,41
2022-11-21T12:39:57.736Z,38
2022-11-21T12:41:13.604Z,42
2022-11-21T12:42:33.397Z,28
2022-11-21T12:43:47.077Z,30
2022-11-21T12:44:53.424Z,33
2022-11-21T12:46:05.661Z,33
2022-11-21T12:47:18.512Z,31
2022-11-21T12:48:28.227Z,59
2022-11-21T12:49:49.164Z,34
2022-11-21T12:51:03.423Z,39
2022-11-21T12:52:26.608Z,31
2022-11-21T12:53:41.552Z,49
2022-11-21T12:54:56.944Z,50
2022-11-21T12:56:12.121Z,32
2022-11-21T12:57:20.690Z,40
2022-11-21T12:58:36.450Z,33
2022-11-21T12:59:44.548Z,30
2022-11-21T13:01:02.192Z,39
2022-11-21T13:02:14.696Z,37
2022-11-21T13:03:31.992Z,37
2022-11-21T13:04:44.212Z,37
2022-11-21T13:05:51.522Z,26
2022-11-21T13:07:01.217Z,30
2022-11-21T13:08:08.200Z,31
2022-11-21T13:09:15.308Z,33
2022-11-21T13:10:25.093Z,34
2022-11-21T13:11:32.180Z,44
2022-11-21T13:12:52.376Z,44
2022-11-21T13:14:04.877Z,39
2022-11-21T13:15:19.980Z,28
2022-11-21T13:16:32.452Z,45
2022-11-21T13:17:42.424Z,33
2022-11-21T13:18:55.485Z,28
2022-11-21T13:20:02.838Z,60
2022-11-21T13:21:20.912Z,36
2022-11-21T13:22:38.548Z,43
2022-11-21T13:23:45.466Z,47
2022-11-21T13:24:52.968Z,49
2022-11-21T13:26:00.709Z,46
2022-11-21T13:27:18.221Z,56
2022-11-21T13:28:28.590Z,49
2022-11-21T13:29:38.321Z,50
2022-11-21T13:30:45.348Z,62
2022-11-21T13:31:52.387Z,54
2022-11-21T13:32:59.699Z,61
2022-11-21T13:34:07.580Z,62
2022-11-21T13:35:20.135Z,60
2022-11-21T13:36:27.529Z,58
2022-11-21T13:37:34.588Z,59
2022-11-21T13:38:52.142Z,63
2022-11-21T13:39:59.077Z,59
2022-11-21T13:41:16.526Z,61
2022-11-21T13:42:37.427Z,78
2022-11-21T13:44:00.168Z,82
2022-11-21T13:45:17.496Z,64
2022-11-21T13:46:33.229Z,79
2022-11-21T13:47:55.921Z,72
2022-11-21T13:49:00.834Z,71
2022-11-21T13:50:10.960Z,76
2022-11-21T13:51:23.084Z,85
2022-11-21T13:52:40.428Z,76
2022-11-21T13:53:58.010Z,75
2022-11-21T13:55:08.530Z,70
2022-11-21T13:56:25.756Z,71
2022-11-21T13:57:43.147Z,73
2022-11-21T13:58:53.283Z,70
2022-11-21T14:00:08.929Z,68
2022-11-21T14:01:28.245Z,70
2022-11-21T14:02:45.367Z,67
2022-11-21T14:04:03.568Z,82
2022-11-21T14:05:14.748Z,92
2022-11-21T14:06:33.148Z,70
2022-11-21T14:07:45.557Z,96
2022-11-21T14:08:53.380Z,75
2022-11-21T14:10:11.940Z,75
2022-11-21T14:11:29.840Z,90
2022-11-21T14:12:41.189Z,84
2022-11-21T14:13:45.092Z,78
2022-11-21T14:14:52.532Z,93
2022-11-21T14:16:04.875Z,77
2022-11-21T14:17:22.045Z,81
2022-11-21T14:18:39.559Z,73
2022-11-21T14:19:48.031Z,101
2022-11-21T14:20:56.228Z,85
2022-11-21T14:22:03.375Z,88
2022-11-21T14:23:16.856Z,108
2022-11-21T14:24:24.780Z,89
2022-11-21T14:25:32.480Z,104
2022-11-21T14:26:44.864Z,98
2022-11-21T14:27:52.112Z,106
2022-11-21T14:29:00.428Z,115
2022-11-21T14:30:18.016Z,128
2022-11-21T14:31:30.564Z,107
2022-11-21T14:32:38.052Z,106
2022-11-21T14:33:47.290Z,111
2022-11-21T14:34:53.351Z,115
2022-11-21T14:36:10.910Z,111
2022-11-21T14:37:22.316Z,108
2022-11-21T14:38:29.556Z,116
2022-11-21T14:39:51.297Z,129
2022-11-21T14:40:55.117Z,132
2022-11-21T14:42:13.562Z,130
2022-11-21T14:43:20.433Z,125
2022-11-21T14:44:28.014Z,116
2022-11-21T14:45:34.727Z,124
2022-11-21T14:46:42.235Z,120
2022-11-21T14:47:49.650Z,126
2022-11-21T14:48:56.808Z,106
2022-11-21T14:50:15.359Z,103
2022-11-21T14:51:32.959Z,109
2022-11-21T14:52:40.770Z,111
2022-11-21T14:53:48.189Z,120
2022-11-21T14:55:22.714Z,107
2022-11-21T14:56:05.411Z,116
2022-11-21T14:57:12.561Z,111
2022-11-21T14:58:22.327Z,109
2022-11-21T14:59:29.456Z,106
2022-11-21T15:01:47.693Z,99
2022-11-21T15:02:58.795Z,120
2022-11-21T15:04:06.395Z,106
2022-11-21T15:05:29.130Z,104
2022-11-21T15:06:23.953Z,95
2022-11-21T15:09:28.946Z,108
2022-11-21T15:10:59.484Z,122
2022-11-21T15:12:05.827Z,114
2022-11-21T15:13:15.207Z,103
2022-11-21T15:14:22.744Z,96
2022-11-21T15:15:35.102Z,111
2022-11-21T15:16:42.379Z,120
2022-11-21T15:18:18.337Z,111
2022-11-21T15:19:02.887Z,98
2022-11-21T15:20:13.736Z,115
2022-11-21T15:21:21.436Z,123
2022-11-21T15:22:28.857Z,114
2022-11-21T15:23:41.859Z,113
2022-11-21T15:24:49.636Z,120
2022-11-21T15:26:00.824Z,116
2022-11-21T15:27:04.435Z,100
2022-11-21T15:28:22.015Z,109
2022-11-21T15:29:29.230Z,112
2022-11-21T15:30:36.023Z,118
2022-11-21T15:31:43.371Z,122
2022-11-21T15:32:50.631Z,107
2022-11-21T15:35:15.275Z,108
2022-11-21T15:36:30.762Z,111
2022-11-21T15:37:37.795Z,104
2022-11-21T15:38:44.773Z,106
2022-11-21T15:39:56.843Z,104
2022-11-21T15:41:04.267Z,115
2022-11-21T15:42:14.709Z,116
2022-11-21T15:43:32.276Z,119
2022-11-21T15:44:45.216Z,120
2022-11-21T15:45:57.664Z,115
2022-11-21T15:47:04.631Z,102
2022-11-21T15:48:12.320Z,120
2022-11-21T15:50:25.970Z,119
2022-11-21T15:52:40.296Z,125
2022-11-21T15:53:50.028Z,120
2022-11-21T15:54:57.029Z,104
2022-11-21T15:56:04.346Z,113
2022-11-21T15:57:11.524Z,100
2022-11-21T15:57:15.209Z,98
2022-11-21T15:57:15.276Z,110
2022-11-21T15:58:18.548Z,106
2022-11-21T15:59:25.644Z,113
2022-11-21T16:00:33.175Z,101
2022-11-21T16:01:40.395Z,114
2022-11-21T16:02:48.430Z,103
2022-11-21T16:03:56.409Z,121
2022-11-21T16:05:07.635Z,123
2022-11-21T16:06:17.530Z,114
2022-11-21T16:07:26.207Z,108
2022-11-21T16:08:37.290Z,112
2022-11-21T16:09:44.841Z,119
2022-11-21T16:10:52.883Z,124
2022-11-21T16:12:00.030Z,118
2022-11-21T16:13:07.823Z,104
2022-11-21T16:14:16.868Z,110
2022-11-21T16:15:24.302Z,120
2022-11-21T16:16:31.643Z,113
2022-11-21T16:17:39.225Z,113
2022-11-21T16:18:47.163Z,122
2022-11-21T16:19:54.611Z,122
2022-11-21T16:21:02.252Z,120
2022-11-21T16:22:09.529Z,127
2022-11-21T16:23:16.890Z,110
2022-11-21T16:24:24.384Z,110
2022-11-21T16:25:31.765Z,116
2022-11-21T16:26:39.855Z,113
2022-11-21T16:27:47.930Z,123